sensor_id;sensor_type;location;lat;lon;timestamp;pressure;altitude;pressure_sealevel;temperature;humidity
38466;BME280;24244;51.950;5.902;2023-02-03T00:01:39;102309.00;;;9.27;88.65
38466;BME280;24244;51.950;5.902;2023-02-03T00:04:05;102304.53;;;9.27;88.37
38466;BME280;24244;51.950;5.902;2023-02-03T00:06:32;102308.03;;;9.28;88.41
38466;BME280;24244;51.950;5.902;2023-02-03T00:08:59;102308.03;;;9.28;88.56
38466;BME280;24244;51.950;5.902;2023-02-03T00:11:29;102306.34;;;9.27;88.54
38466;BME280;24244;51.950;5.902;2023-02-03T00:13:56;102310.69;;;9.28;88.37
38466;BME280;24244;51.950;5.902;2023-02-03T00:16:24;102322.28;;;9.27;88.63
38466;BME280;24244;51.950;5.902;2023-02-03T00:18:51;102333.59;;;9.29;88.45
38466;BME280;24244;51.950;5.902;2023-02-03T00:21:17;102329.97;;;9.30;88.55
38466;BME280;24244;51.950;5.902;2023-02-03T00:23:47;102334.56;;;9.28;88.28
38466;BME280;24244;51.950;5.902;2023-02-03T00:26:15;102335.28;;;9.30;88.38
38466;BME280;24244;51.950;5.902;2023-02-03T00:28:44;102333.59;;;9.29;88.46
38466;BME280;24244;51.950;5.902;2023-02-03T00:31:14;102338.91;;;9.29;88.33
38466;BME280;24244;51.950;5.902;2023-02-03T00:33:43;102334.44;;;9.29;88.70
38466;BME280;24244;51.950;5.902;2023-02-03T00:36:11;102337.22;;;9.28;88.66
38466;BME280;24244;51.950;5.902;2023-02-03T00:38:38;102346.03;;;9.28;88.64
38466;BME280;24244;51.950;5.902;2023-02-03T00:41:05;102347.84;;;9.28;88.66
38466;BME280;24244;51.950;5.902;2023-02-03T00:43:32;102357.63;;;9.27;88.49
38466;BME280;24244;51.950;5.902;2023-02-03T00:45:59;102356.63;;;9.28;88.43
38466;BME280;24244;51.950;5.902;2023-02-03T00:48:26;102356.50;;;9.30;88.63
38466;BME280;24244;51.950;5.902;2023-02-03T00:50:54;102347.53;;;9.31;88.50
38466;BME280;24244;51.950;5.902;2023-02-03T00:53:21;102362.50;;;9.32;88.47
38466;BME280;24244;51.950;5.902;2023-02-03T00:55:48;102358.03;;;9.32;88.53
38466;BME280;24244;51.950;5.902;2023-02-03T00:58:14;102358.72;;;9.34;88.44
38466;BME280;24244;51.950;5.902;2023-02-03T01:00:41;102356.22;;;9.33;88.57
38466;BME280;24244;51.950;5.902;2023-02-03T01:03:08;102348.25;;;9.33;88.37
38466;BME280;24244;51.950;5.902;2023-02-03T01:05:36;102341.13;;;9.33;88.22
38466;BME280;24244;51.950;5.902;2023-02-03T01:08:04;102355.09;;;9.35;88.36
38466;BME280;24244;51.950;5.902;2023-02-03T01:10:31;102345.34;;;9.36;88.21
38466;BME280;24244;51.950;5.902;2023-02-03T01:12:58;102349.81;;;9.35;88.08
38466;BME280;24244;51.950;5.902;2023-02-03T01:15:24;102338.34;;;9.35;88.15
38466;BME280;24244;51.950;5.902;2023-02-03T01:17:51;102339.19;;;9.35;88.21
38466;BME280;24244;51.950;5.902;2023-02-03T01:20:18;102345.34;;;9.36;88.24
38466;BME280;24244;51.950;5.902;2023-02-03T01:22:47;102345.34;;;9.36;88.24
38466;BME280;24244;51.950;5.902;2023-02-03T01:25:15;102328.56;;;9.35;88.04
38466;BME280;24244;51.950;5.902;2023-02-03T01:27:42;102325.78;;;9.37;88.41
38466;BME280;24244;51.950;5.902;2023-02-03T01:30:10;102334.59;;;9.37;88.16
38466;BME280;24244;51.950;5.902;2023-02-03T01:32:37;102320.31;;;9.38;88.14
38466;BME280;24244;51.950;5.902;2023-02-03T01:35:04;102311.50;;;9.38;88.03
38466;BME280;24244;51.950;5.902;2023-02-03T01:37:34;102320.47;;;9.37;88.31
38466;BME280;24244;51.950;5.902;2023-02-03T01:40:01;102316.00;;;9.37;88.29
38466;BME280;24244;51.950;5.902;2023-02-03T01:42:31;102315.16;;;9.37;88.18
38466;BME280;24244;51.950;5.902;2023-02-03T01:44:58;102298.41;;;9.36;87.99
38466;BME280;24244;51.950;5.902;2023-02-03T01:47:28;102293.94;;;9.37;88.25
38466;BME280;24244;51.950;5.902;2023-02-03T01:50:02;102283.31;;;9.37;88.12
38466;BME280;24244;51.950;5.902;2023-02-03T01:52:32;102287.78;;;9.36;88.14
38466;BME280;24244;51.950;5.902;2023-02-03T01:55:02;102286.81;;;9.37;88.24
38466;BME280;24244;51.950;5.902;2023-02-03T01:57:36;102289.47;;;9.37;87.89
38466;BME280;24244;51.950;5.902;2023-02-03T02:00:06;102291.13;;;9.38;88.07
38466;BME280;24244;51.950;5.902;2023-02-03T02:02:34;102292.81;;;9.39;88.16
38466;BME280;24244;51.950;5.902;2023-02-03T02:05:04;102290.16;;;9.39;87.88
38466;BME280;24244;51.950;5.902;2023-02-03T02:07:33;102300.75;;;9.39;88.17
38466;BME280;24244;51.950;5.902;2023-02-03T02:10:03;102303.41;;;9.39;87.92
38466;BME280;24244;51.950;5.902;2023-02-03T02:12:31;102287.50;;;9.39;88.02
38466;BME280;24244;51.950;5.902;2023-02-03T02:14:58;102275.06;;;9.40;87.89
38466;BME280;24244;51.950;5.902;2023-02-03T02:17:40;102266.25;;;9.39;87.83
38466;BME280;24244;51.950;5.902;2023-02-03T02:20:32;102264.31;;;9.41;87.93
38466;BME280;24244;51.950;5.902;2023-02-03T02:23:16;102255.50;;;9.41;88.00
38466;BME280;24244;51.950;5.902;2023-02-03T02:25:59;102260.81;;;9.41;87.68
38466;BME280;24244;51.950;5.902;2023-02-03T02:28:51;102267.94;;;9.40;87.96
38466;BME280;24244;51.950;5.902;2023-02-03T02:31:45;102268.78;;;9.41;87.79
38466;BME280;24244;51.950;5.902;2023-02-03T02:34:21;102279.41;;;9.41;87.59
38466;BME280;24244;51.950;5.902;2023-02-03T02:36:57;102279.53;;;9.39;87.72
38466;BME280;24244;51.950;5.902;2023-02-03T02:39:34;102291.97;;;9.39;87.69
38466;BME280;24244;51.950;5.902;2023-02-03T02:42:06;102294.78;;;9.37;87.74
38466;BME280;24244;51.950;5.902;2023-02-03T02:44:40;102291.13;;;9.38;87.89
38466;BME280;24244;51.950;5.902;2023-02-03T02:47:16;102299.09;;;9.38;87.79
38466;BME280;24244;51.950;5.902;2023-02-03T02:49:49;102295.59;;;9.38;87.46
38466;BME280;24244;51.950;5.902;2023-02-03T02:52:20;102287.50;;;9.39;87.41
38466;BME280;24244;51.950;5.902;2023-02-03T02:55:00;102276.03;;;9.39;87.79
38466;BME280;24244;51.950;5.902;2023-02-03T02:57:29;102276.03;;;9.39;87.73
38466;BME280;24244;51.950;5.902;2023-02-03T02:59:57;102266.25;;;9.39;87.77
38466;BME280;24244;51.950;5.902;2023-02-03T03:02:31;102238.75;;;9.40;87.43
38466;BME280;24244;51.950;5.902;2023-02-03T03:04:58;102243.22;;;9.40;87.71
38466;BME280;24244;51.950;5.902;2023-02-03T03:07:29;102237.91;;;9.40;87.57
38466;BME280;24244;51.950;5.902;2023-02-03T03:10:00;102216.53;;;9.41;87.27
38466;BME280;24244;51.950;5.902;2023-02-03T03:12:30;102233.31;;;9.42;87.47
38466;BME280;24244;51.950;5.902;2023-02-03T03:15:00;102243.91;;;9.42;87.42
38466;BME280;24244;51.950;5.902;2023-02-03T03:17:30;102241.28;;;9.42;87.31
38466;BME280;24244;51.950;5.902;2023-02-03T03:20:01;102253.69;;;9.41;87.51
38466;BME280;24244;51.950;5.902;2023-02-03T03:22:33;102250.19;;;9.41;87.45
38466;BME280;24244;51.950;5.902;2023-02-03T03:25:03;102257.19;;;9.42;87.24
38466;BME280;24244;51.950;5.902;2023-02-03T03:27:36;102252.72;;;9.42;87.37
38466;BME280;24244;51.950;5.902;2023-02-03T03:30:05;102256.22;;;9.43;87.41
38466;BME280;24244;51.950;5.902;2023-02-03T03:32:35;102263.34;;;9.42;87.24
38466;BME280;24244;51.950;5.902;2023-02-03T03:35:06;102253.56;;;9.43;87.29
38466;BME280;24244;51.950;5.902;2023-02-03T03:37:35;102258.03;;;9.42;87.37
38466;BME280;24244;51.950;5.902;2023-02-03T03:40:09;102262.38;;;9.43;87.14
38466;BME280;24244;51.950;5.902;2023-02-03T03:42:40;102279.13;;;9.44;87.01
38466;BME280;24244;51.950;5.902;2023-02-03T03:45:16;102273.81;;;9.44;87.05
38466;BME280;24244;51.950;5.902;2023-02-03T03:47:50;102270.16;;;9.45;87.13
38466;BME280;24244;51.950;5.902;2023-02-03T03:50:22;102255.91;;;9.46;87.21
38466;BME280;24244;51.950;5.902;2023-02-03T03:52:54;102257.59;;;9.47;87.13
38466;BME280;24244;51.950;5.902;2023-02-03T03:55:24;102269.06;;;9.48;87.06
38466;BME280;24244;51.950;5.902;2023-02-03T03:57:58;102271.84;;;9.46;86.76
38466;BME280;24244;51.950;5.902;2023-02-03T04:00:26;102275.34;;;9.47;87.01
38466;BME280;24244;51.950;5.902;2023-02-03T04:02:58;102286.91;;;9.46;86.79
38466;BME280;24244;51.950;5.902;2023-02-03T04:05:27;102287.75;;;9.46;86.76
38466;BME280;24244;51.950;5.902;2023-02-03T04:07:54;102285.09;;;9.46;86.85
38466;BME280;24244;51.950;5.902;2023-02-03T04:10:24;102292.94;;;9.48;86.73
38466;BME280;24244;51.950;5.902;2023-02-03T04:12:55;102284.00;;;9.49;87.07
38466;BME280;24244;51.950;5.902;2023-02-03T04:15:21;102284.69;;;9.51;87.04
38466;BME280;24244;51.950;5.902;2023-02-03T04:17:48;102290.00;;;9.51;86.83
38466;BME280;24244;51.950;5.902;2023-02-03T04:20:17;102283.72;;;9.52;86.74
38466;BME280;24244;51.950;5.902;2023-02-03T04:22:43;102273.91;;;9.52;86.94
38466;BME280;24244;51.950;5.902;2023-02-03T04:25:10;102272.94;;;9.53;87.03
38466;BME280;24244;51.950;5.902;2023-02-03T04:27:37;102268.47;;;9.54;87.04
38466;BME280;24244;51.950;5.902;2023-02-03T04:30:05;102271.97;;;9.54;86.66
38466;BME280;24244;51.950;5.902;2023-02-03T04:32:32;102285.25;;;9.54;86.89
38466;BME280;24244;51.950;5.902;2023-02-03T04:35:01;102281.47;;;9.57;86.65
38466;BME280;24244;51.950;5.902;2023-02-03T04:37:29;102274.50;;;9.56;86.84
38466;BME280;24244;51.950;5.902;2023-02-03T04:39:56;102270.72;;;9.58;86.56
38466;BME280;24244;51.950;5.902;2023-02-03T04:42:23;102270.72;;;9.58;86.65
38466;BME280;24244;51.950;5.902;2023-02-03T04:44:50;102255.47;;;9.60;86.84
38466;BME280;24244;51.950;5.902;2023-02-03T04:47:18;102263.44;;;9.60;86.56
38466;BME280;24244;51.950;5.902;2023-02-03T04:49:45;102258.97;;;9.61;86.45
38466;BME280;24244;51.950;5.902;2023-02-03T04:52:12;102258.81;;;9.62;86.19
38466;BME280;24244;51.950;5.902;2023-02-03T04:54:40;102248.06;;;9.64;86.47
38466;BME280;24244;51.950;5.902;2023-02-03T04:57:07;102249.75;;;9.65;86.30
38466;BME280;24244;51.950;5.902;2023-02-03T04:59:34;102253.38;;;9.64;86.40
38466;BME280;24244;51.950;5.902;2023-02-03T05:02:01;102250.72;;;9.64;86.28
38466;BME280;24244;51.950;5.902;2023-02-03T05:04:27;102256.88;;;9.64;86.06
38466;BME280;24244;51.950;5.902;2023-02-03T05:06:54;102257.84;;;9.63;86.12
38466;BME280;24244;51.950;5.902;2023-02-03T05:09:22;102259.53;;;9.64;86.47
38466;BME280;24244;51.950;5.902;2023-02-03T05:11:50;102249.88;;;9.63;85.90
38466;BME280;24244;51.950;5.902;2023-02-03T05:14:17;102251.56;;;9.64;86.00
38466;BME280;24244;51.950;5.902;2023-02-03T05:16:44;102246.13;;;9.66;86.13
38466;BME280;24244;51.950;5.902;2023-02-03T05:19:12;102241.63;;;9.66;86.29
38466;BME280;24244;51.950;5.902;2023-02-03T05:21:39;102245.94;;;9.67;86.27
38466;BME280;24244;51.950;5.902;2023-02-03T05:24:06;102237.97;;;9.67;86.17
38466;BME280;24244;51.950;5.902;2023-02-03T05:26:33;102243.03;;;9.70;86.12
38466;BME280;24244;51.950;5.902;2023-02-03T05:29:02;102248.31;;;9.70;86.19
38466;BME280;24244;51.950;5.902;2023-02-03T05:31:29;102259.78;;;9.71;85.93
38466;BME280;24244;51.950;5.902;2023-02-03T05:33:55;102265.94;;;9.71;85.81
38466;BME280;24244;51.950;5.902;2023-02-03T05:36:22;102257.97;;;9.71;85.96
38466;BME280;24244;51.950;5.902;2023-02-03T05:38:49;102236.72;;;9.71;86.26
38466;BME280;24244;51.950;5.902;2023-02-03T05:41:16;102243.84;;;9.71;86.04
38466;BME280;24244;51.950;5.902;2023-02-03T05:44:03;102242.88;;;9.72;85.84
38466;BME280;24244;51.950;5.902;2023-02-03T05:46:29;102249.03;;;9.72;86.11
38466;BME280;24244;51.950;5.902;2023-02-03T05:48:56;102256.16;;;9.72;86.08
38466;BME280;24244;51.950;5.902;2023-02-03T05:51:23;102266.78;;;9.72;85.83
38466;BME280;24244;51.950;5.902;2023-02-03T05:53:50;102257.84;;;9.73;85.81
38466;BME280;24244;51.950;5.902;2023-02-03T05:56:18;102248.88;;;9.74;86.07
38466;BME280;24244;51.950;5.902;2023-02-03T05:58:45;102257.66;;;9.74;86.09
38466;BME280;24244;51.950;5.902;2023-02-03T06:01:13;102248.88;;;9.74;85.77
38466;BME280;24244;51.950;5.902;2023-02-03T06:03:40;102247.88;;;9.75;85.83
38466;BME280;24244;51.950;5.902;2023-02-03T06:06:10;102241.59;;;9.76;85.98
38466;BME280;24244;51.950;5.902;2023-02-03T06:08:37;102241.59;;;9.76;86.00
38466;BME280;24244;51.950;5.902;2023-02-03T06:11:04;102254.75;;;9.77;85.89
38466;BME280;24244;51.950;5.902;2023-02-03T06:13:31;102254.75;;;9.77;86.05
38466;BME280;24244;51.950;5.902;2023-02-03T06:15:58;102252.09;;;9.77;85.57
38466;BME280;24244;51.950;5.902;2023-02-03T06:18:26;102255.56;;;9.78;85.87
38466;BME280;24244;51.950;5.902;2023-02-03T06:20:53;102264.38;;;9.78;85.64
38466;BME280;24244;51.950;5.902;2023-02-03T06:23:20;102254.75;;;9.77;85.62
38466;BME280;24244;51.950;5.902;2023-02-03T06:25:48;102267.31;;;9.75;85.65
38466;BME280;24244;51.950;5.902;2023-02-03T06:28:15;102257.41;;;9.77;85.57
38466;BME280;24244;51.950;5.902;2023-02-03T06:30:42;102260.19;;;9.76;85.48
38466;BME280;24244;51.950;5.902;2023-02-03T06:33:09;102256.41;;;9.78;85.70
38466;BME280;24244;51.950;5.902;2023-02-03T06:35:38;102260.03;;;9.77;85.84
38466;BME280;24244;51.950;5.902;2023-02-03T06:38:05;102259.06;;;9.78;85.73
38466;BME280;24244;51.950;5.902;2023-02-03T06:40:32;102266.19;;;9.78;85.52
38466;BME280;24244;51.950;5.902;2023-02-03T06:43:02;102269.84;;;9.77;85.75
38466;BME280;24244;51.950;5.902;2023-02-03T06:45:29;102279.47;;;9.78;85.46
38466;BME280;24244;51.950;5.902;2023-02-03T06:47:56;102283.94;;;9.77;85.65
38466;BME280;24244;51.950;5.902;2023-02-03T06:50:23;102291.91;;;9.77;85.93
38466;BME280;24244;51.950;5.902;2023-02-03T06:52:51;102290.94;;;9.78;85.45
38466;BME280;24244;51.950;5.902;2023-02-03T06:55:20;102285.75;;;9.77;85.64
38466;BME280;24244;51.950;5.902;2023-02-03T06:57:47;102287.44;;;9.78;85.74
38466;BME280;24244;51.950;5.902;2023-02-03T07:00:16;102280.31;;;9.78;85.87
38466;BME280;24244;51.950;5.902;2023-02-03T07:03:02;102290.94;;;9.78;85.50
38466;BME280;24244;51.950;5.902;2023-02-03T07:05:30;102298.78;;;9.80;85.76
38466;BME280;24244;51.950;5.902;2023-02-03T07:07:58;102300.59;;;9.79;85.47
38466;BME280;24244;51.950;5.902;2023-02-03T07:10:25;102293.59;;;9.78;85.83
38466;BME280;24244;51.950;5.902;2023-02-03T07:12:53;102300.41;;;9.81;85.50
38466;BME280;24244;51.950;5.902;2023-02-03T07:15:19;102291.59;;;9.80;85.42
38466;BME280;24244;51.950;5.902;2023-02-03T07:17:47;102292.44;;;9.81;85.41
38466;BME280;24244;51.950;5.902;2023-02-03T07:20:21;102306.72;;;9.80;85.38
38466;BME280;24244;51.950;5.902;2023-02-03T07:22:52;102311.22;;;9.79;85.57
38466;BME280;24244;51.950;5.902;2023-02-03T07:25:21;102306.03;;;9.78;85.74
38466;BME280;24244;51.950;5.902;2023-02-03T07:27:48;102301.56;;;9.78;85.49
38466;BME280;24244;51.950;5.902;2023-02-03T07:30:15;102303.38;;;9.78;85.69
38466;BME280;24244;51.950;5.902;2023-02-03T07:32:45;102300.84;;;9.76;85.78
38466;BME280;24244;51.950;5.902;2023-02-03T07:35:12;102296.25;;;9.78;85.66
38466;BME280;24244;51.950;5.902;2023-02-03T07:37:40;102300.00;;;9.76;85.41
38466;BME280;24244;51.950;5.902;2023-02-03T07:40:08;102294.72;;;9.76;85.81
38466;BME280;24244;51.950;5.902;2023-02-03T07:42:37;102290.38;;;9.75;85.54
38466;BME280;24244;51.950;5.902;2023-02-03T07:45:07;102290.38;;;9.75;85.71
38466;BME280;24244;51.950;5.902;2023-02-03T07:47:34;102297.50;;;9.74;85.67
38466;BME280;24244;51.950;5.902;2023-02-03T07:50:01;102301.69;;;9.77;85.73
38466;BME280;24244;51.950;5.902;2023-02-03T07:52:28;102307.00;;;9.77;85.80
38466;BME280;24244;51.950;5.902;2023-02-03T07:54:57;102303.66;;;9.75;85.73
38466;BME280;24244;51.950;5.902;2023-02-03T07:57:24;102314.41;;;9.73;85.75
38466;BME280;24244;51.950;5.902;2023-02-03T07:59:52;102305.63;;;9.73;85.61
38466;BME280;24244;51.950;5.902;2023-02-03T08:02:20;102313.44;;;9.74;85.60
38466;BME280;24244;51.950;5.902;2023-02-03T08:04:47;102324.06;;;9.74;85.76
38466;BME280;24244;51.950;5.902;2023-02-03T08:07:14;102334.66;;;9.74;85.58
38466;BME280;24244;51.950;5.902;2023-02-03T08:09:41;102328.38;;;9.75;85.85
38466;BME280;24244;51.950;5.902;2023-02-03T08:12:08;102330.06;;;9.76;85.71
38466;BME280;24244;51.950;5.902;2023-02-03T08:14:35;102329.94;;;9.78;85.69
38466;BME280;24244;51.950;5.902;2023-02-03T08:17:03;102336.09;;;9.78;85.93
38466;BME280;24244;51.950;5.902;2023-02-03T08:19:30;102334.94;;;9.81;85.69
38466;BME280;24244;51.950;5.902;2023-02-03T08:21:56;102345.56;;;9.81;85.55
38466;BME280;24244;51.950;5.902;2023-02-03T08:24:24;102348.38;;;9.79;85.65
38466;BME280;24244;51.950;5.902;2023-02-03T08:26:51;102359.69;;;9.81;85.62
38466;BME280;24244;51.950;5.902;2023-02-03T08:29:18;102359.69;;;9.81;85.73
38466;BME280;24244;51.950;5.902;2023-02-03T08:31:45;102343.59;;;9.83;85.69
38466;BME280;24244;51.950;5.902;2023-02-03T08:34:14;102363.88;;;9.84;85.85
38466;BME280;24244;51.950;5.902;2023-02-03T08:36:41;102362.06;;;9.85;85.57
38466;BME280;24244;51.950;5.902;2023-02-03T08:39:09;102360.25;;;9.85;85.77
38466;BME280;24244;51.950;5.902;2023-02-03T08:41:36;102351.44;;;9.85;85.69
38466;BME280;24244;51.950;5.902;2023-02-03T08:44:03;102348.66;;;9.86;85.62
38466;BME280;24244;51.950;5.902;2023-02-03T08:46:29;102345.03;;;9.87;85.56
38466;BME280;24244;51.950;5.902;2023-02-03T08:48:58;102348.47;;;9.88;85.81
38466;BME280;24244;51.950;5.902;2023-02-03T08:51:30;102361.63;;;9.89;85.68
38466;BME280;24244;51.950;5.902;2023-02-03T08:53:56;102356.19;;;9.91;85.67
38466;BME280;24244;51.950;5.902;2023-02-03T08:56:23;102354.50;;;9.90;85.86
38466;BME280;24244;51.950;5.902;2023-02-03T08:58:54;102362.19;;;9.93;85.54
38466;BME280;24244;51.950;5.902;2023-02-03T09:01:21;102371.84;;;9.94;85.46
38466;BME280;24244;51.950;5.902;2023-02-03T09:03:48;102363.88;;;9.94;85.62
38466;BME280;24244;51.950;5.902;2023-02-03T09:06:15;102361.88;;;9.96;85.86
38466;BME280;24244;51.950;5.902;2023-02-03T09:08:44;102368.03;;;9.96;85.47
38466;BME280;24244;51.950;5.902;2023-02-03T09:11:13;102361.75;;;9.97;85.59
38466;BME280;24244;51.950;5.902;2023-02-03T09:13:40;102373.94;;;10.00;85.72
38466;BME280;24244;51.950;5.902;2023-02-03T09:16:12;102371.94;;;10.02;85.48
38466;BME280;24244;51.950;5.902;2023-02-03T09:18:39;102362.16;;;10.02;85.52
38466;BME280;24244;51.950;5.902;2023-02-03T09:21:08;102370.97;;;10.03;85.24
38466;BME280;24244;51.950;5.902;2023-02-03T09:23:42;102375.31;;;10.04;85.42
38466;BME280;24244;51.950;5.902;2023-02-03T09:26:12;102363.69;;;10.05;85.64
38466;BME280;24244;51.950;5.902;2023-02-03T09:28:42;102369.84;;;10.05;85.77
38466;BME280;24244;51.950;5.902;2023-02-03T09:31:11;102367.91;;;10.07;85.85
38466;BME280;24244;51.950;5.902;2023-02-03T09:33:38;102370.38;;;10.09;85.66
38466;BME280;24244;51.950;5.902;2023-02-03T09:36:06;102368.28;;;10.12;85.28
38466;BME280;24244;51.950;5.902;2023-02-03T09:38:34;102376.97;;;10.14;85.63
38466;BME280;24244;51.950;5.902;2023-02-03T09:41:04;102381.31;;;10.15;85.61
38466;BME280;24244;51.950;5.902;2023-02-03T09:43:43;102381.16;;;10.17;85.80
38466;BME280;24244;51.950;5.902;2023-02-03T09:46:16;102378.25;;;10.20;85.58
38466;BME280;24244;51.950;5.902;2023-02-03T09:48:48;102382.56;;;10.21;85.88
38466;BME280;24244;51.950;5.902;2023-02-03T09:51:21;102379.78;;;10.23;85.45
38466;BME280;24244;51.950;5.902;2023-02-03T09:53:52;102372.63;;;10.23;85.64
38466;BME280;24244;51.950;5.902;2023-02-03T09:56:25;102395.56;;;10.24;85.58
38466;BME280;24244;51.950;5.902;2023-02-03T09:58:56;102405.06;;;10.27;85.63
38466;BME280;24244;51.950;5.902;2023-02-03T10:01:24;102391.66;;;10.28;85.28
38466;BME280;24244;51.950;5.902;2023-02-03T10:03:59;102396.81;;;10.30;85.26
38466;BME280;24244;51.950;5.902;2023-02-03T10:06:32;102392.19;;;10.32;85.51
38466;BME280;24244;51.950;5.902;2023-02-03T10:09:20;102392.19;;;10.32;85.44
38466;BME280;24244;51.950;5.902;2023-02-03T10:12:15;102389.38;;;10.33;85.64
38466;BME280;24244;51.950;5.902;2023-02-03T10:15:01;102394.56;;;10.35;85.50
38466;BME280;24244;51.950;5.902;2023-02-03T10:17:32;102401.56;;;10.36;85.43
38466;BME280;24244;51.950;5.902;2023-02-03T10:20:04;102397.09;;;10.36;85.45
38466;BME280;24244;51.950;5.902;2023-02-03T10:22:36;102392.59;;;10.37;85.45
38466;BME280;24244;51.950;5.902;2023-02-03T10:25:10;102387.28;;;10.37;85.22
38466;BME280;24244;51.950;5.902;2023-02-03T10:27:42;102393.28;;;10.39;85.24
38466;BME280;24244;51.950;5.902;2023-02-03T10:30:23;102387.81;;;10.40;85.40
38466;BME280;24244;51.950;5.902;2023-02-03T10:32:53;102399.31;;;10.41;85.34
38466;BME280;24244;51.950;5.902;2023-02-03T10:35:22;102395.53;;;10.43;85.10
38466;BME280;24244;51.950;5.902;2023-02-03T10:37:56;102405.00;;;10.46;85.53
38466;BME280;24244;51.950;5.902;2023-02-03T10:40:25;102405.84;;;10.46;85.08
38466;BME280;24244;51.950;5.902;2023-02-03T10:42:53;102406.81;;;10.45;85.28
38466;BME280;24244;51.950;5.902;2023-02-03T10:45:41;102405.84;;;10.46;85.29
38466;BME280;24244;51.950;5.902;2023-02-03T10:48:12;102418.16;;;10.47;85.31
38466;BME280;24244;51.950;5.902;2023-02-03T10:50:44;102411.03;;;10.48;85.09
38466;BME280;24244;51.950;5.902;2023-02-03T10:53:21;102413.56;;;10.49;85.07
38466;BME280;24244;51.950;5.902;2023-02-03T10:55:50;102430.19;;;10.51;85.02
38466;BME280;24244;51.950;5.902;2023-02-03T10:58:25;102426.53;;;10.52;85.39
38466;BME280;24244;51.950;5.902;2023-02-03T11:01:05;102428.22;;;10.53;85.41
38466;BME280;24244;51.950;5.902;2023-02-03T11:03:33;102417.44;;;10.55;85.16
38466;BME280;24244;51.950;5.902;2023-02-03T11:06:09;102418.97;;;10.57;84.96
38466;BME280;24244;51.950;5.902;2023-02-03T11:08:38;102413.66;;;10.57;85.02
38466;BME280;24244;51.950;5.902;2023-02-03T11:11:07;102412.81;;;10.57;85.12
38466;BME280;24244;51.950;5.902;2023-02-03T11:13:35;102420.66;;;10.58;84.90
38466;BME280;24244;51.950;5.902;2023-02-03T11:16:04;102421.63;;;10.57;85.13
38466;BME280;24244;51.950;5.902;2023-02-03T11:18:51;102424.00;;;10.60;84.90
38466;BME280;24244;51.950;5.902;2023-02-03T11:21:21;102421.06;;;10.64;84.86
38466;BME280;24244;51.950;5.902;2023-02-03T11:23:52;102431.56;;;10.65;85.02
38466;BME280;24244;51.950;5.902;2023-02-03T11:26:20;102421.75;;;10.66;85.05
38466;BME280;24244;51.950;5.902;2023-02-03T11:28:50;102434.03;;;10.67;84.94
38466;BME280;24244;51.950;5.902;2023-02-03T11:31:22;102445.38;;;10.69;84.83
38466;BME280;24244;51.950;5.902;2023-02-03T11:33:55;102431.81;;;10.72;84.79
38466;BME280;24244;51.950;5.902;2023-02-03T11:36:26;102422.84;;;10.73;84.86
38466;BME280;24244;51.950;5.902;2023-02-03T11:39:15;102432.34;;;10.75;84.81
38466;BME280;24244;51.950;5.902;2023-02-03T11:41:43;102427.84;;;10.76;84.75
38466;BME280;24244;51.950;5.902;2023-02-03T11:44:14;102425.91;;;10.78;84.59
38466;BME280;24244;51.950;5.902;2023-02-03T11:46:44;102422.25;;;10.79;84.72
38466;BME280;24244;51.950;5.902;2023-02-03T11:49:28;102432.59;;;10.82;84.51
38466;BME280;24244;51.950;5.902;2023-02-03T11:52:03;102428.81;;;10.84;84.64
38466;BME280;24244;51.950;5.902;2023-02-03T11:54:39;102417.19;;;10.85;84.53
38466;BME280;24244;51.950;5.902;2023-02-03T11:57:29;102430.34;;;10.87;84.69
38466;BME280;24244;51.950;5.902;2023-02-03T12:00:09;102432.84;;;10.88;84.11
38466;BME280;24244;51.950;5.902;2023-02-03T12:02:55;102426.38;;;10.91;84.15
38466;BME280;24244;51.950;5.902;2023-02-03T12:05:47;102423.59;;;10.92;84.23
38466;BME280;24244;51.950;5.902;2023-02-03T12:08:27;102427.75;;;10.95;84.33
38466;BME280;24244;51.950;5.902;2023-02-03T12:11:03;102429.44;;;10.96;83.99
38466;BME280;24244;51.950;5.902;2023-02-03T12:14:00;102444.28;;;10.98;83.95
38466;BME280;24244;51.950;5.902;2023-02-03T12:16:57;102445.97;;;10.99;83.49
38466;BME280;24244;51.950;5.902;2023-02-03T12:19:38;102454.47;;;11.03;83.45
38466;BME280;24244;51.950;5.902;2023-02-03T12:22:15;102458.66;;;11.06;83.58
38466;BME280;24244;51.950;5.902;2023-02-03T12:24:51;102459.50;;;11.06;83.28
38466;BME280;24244;51.950;5.902;2023-02-03T12:27:33;102466.34;;;11.09;83.28
38466;BME280;24244;51.950;5.902;2023-02-03T12:30:10;102476.84;;;11.10;83.29
38466;BME280;24244;51.950;5.902;2023-02-03T12:32:44;102468.72;;;11.12;83.44
38466;BME280;24244;51.950;5.902;2023-02-03T12:35:17;102469.84;;;11.09;83.69
38466;BME280;24244;51.950;5.902;2023-02-03T12:37:50;102469.00;;;11.09;84.02
38466;BME280;24244;51.950;5.902;2023-02-03T12:40:25;102472.81;;;11.06;84.37
38466;BME280;24244;51.950;5.902;2023-02-03T12:43:02;102477.28;;;11.06;84.35
38466;BME280;24244;51.950;5.902;2023-02-03T12:45:33;102479.13;;;11.05;84.57
38466;BME280;24244;51.950;5.902;2023-02-03T12:48:05;102475.63;;;11.05;84.56
38466;BME280;24244;51.950;5.902;2023-02-03T12:50:39;102487.38;;;11.02;84.75
38466;BME280;24244;51.950;5.902;2023-02-03T12:53:11;102502.25;;;10.95;85.86
38466;BME280;24244;51.950;5.902;2023-02-03T12:55:42;102521.59;;;10.87;86.25
38466;BME280;24244;51.950;5.902;2023-02-03T12:58:20;102520.22;;;10.83;87.11
38466;BME280;24244;51.950;5.902;2023-02-03T13:00:53;102509.78;;;10.72;86.95
38466;BME280;24244;51.950;5.902;2023-02-03T13:03:29;102509.09;;;10.60;86.78
38466;BME280;24244;51.950;5.902;2023-02-03T13:06:10;102501.28;;;10.49;86.42
38466;BME280;24244;51.950;5.902;2023-02-03T13:08:42;102502.97;;;10.41;86.42
38466;BME280;24244;51.950;5.902;2023-02-03T13:11:17;102506.06;;;10.36;86.45
38466;BME280;24244;51.950;5.902;2023-02-03T13:13:47;102510.94;;;10.31;86.81
38466;BME280;24244;51.950;5.902;2023-02-03T13:16:20;102509.44;;;10.29;86.71